Time;durP1;ratioP1;P1;durP2;ratioP2;P2;SDS_P1;SDS_P2;PMS_P1;PMS_P2;Temp;Humidity;BMP_temperature;BMP_pressure;BME280_temperature;BME280_humidity;BME280_pressure;Samples;Min_cycle;Max_cycle;Signal;HPM_P1;HPM_P2
2022/06/08 00:02:59;;;;;;;1.77;0.80;;;;;;;;;;6328882;28;20040;-72
2022/06/08 00:06:01;;;;;;;3.42;1.08;;;;;;;;;;6332701;28;20056;-73
2022/06/08 00:09:03;;;;;;;2.65;1.00;;;;;;;;;;6329838;28;20048;-74
2022/06/08 00:12:08;;;;;;;2.05;0.88;;;;;;;;;;6325305;28;20056;-73
2022/06/08 00:15:10;;;;;;;1.35;0.93;;;;;;;;;;6326919;28;20102;-74
2022/06/08 00:18:12;;;;;;;2.58;0.90;;;;;;;;;;6327307;28;20393;-73
2022/06/08 00:21:15;;;;;;;2.63;0.95;;;;;;;;;;6332690;28;20044;-74
2022/06/08 00:24:19;;;;;;;2.28;0.95;;;;;;;;;;6327597;28;20366;-73
2022/06/08 00:27:21;;;;;;;;;;;;;;;;;;6324002;28;20058;-73
2022/06/08 00:30:24;;;;;;;1.35;0.98;;;;;;;;;;6324979;28;19925;-73
2022/06/08 00:33:25;;;;;;;2.53;1.10;;;;;;;;;;6329397;28;20550;-73
2022/06/08 00:36:27;;;;;;;1.83;1.08;;;;;;;;;;6328350;28;20055;-73
2022/06/08 00:39:29;;;;;;;4.15;1.40;;;;;;;;;;6326354;28;20048;-73
2022/06/08 00:42:32;;;;;;;2.28;1.20;;;;;;;;;;6325843;28;20331;-73
2022/06/08 00:45:33;;;;;;;3.67;1.50;;;;;;;;;;6326818;28;20089;-73
2022/06/08 00:48:38;;;;;;;4.63;1.45;;;;;;;;;;6332409;28;20105;-72
2022/06/08 00:51:40;;;;;;;2.83;1.27;;;;;;;;;;6331427;27;20077;-72
2022/06/08 00:54:43;;;;;;;2.90;1.27;;;;;;;;;;6329711;28;20093;-72
2022/06/08 00:57:49;;;;;;;5.35;1.30;;;;;;;;;;6324161;28;20060;-72
2022/06/08 01:00:51;;;;;;;5.72;2.45;;;;;;;;;;6326664;28;20330;-72
2022/06/08 01:04:06;;;;;;;3.80;1.88;;;;;;;;;;6329287;28;20109;-73
2022/06/08 01:07:08;;;;;;;4.05;1.92;;;;;;;;;;6324078;28;20109;-72
2022/06/08 01:10:10;;;;;;;2.97;1.75;;;;;;;;;;6325764;28;20054;-72
2022/06/08 01:13:13;;;;;;;6.13;1.93;;;;;;;;;;6321533;28;20105;-72
2022/06/08 01:16:15;;;;;;;4.13;1.98;;;;;;;;;;6326289;28;20048;-72
2022/06/08 01:19:17;;;;;;;6.70;2.10;;;;;;;;;;6322629;28;20492;-73
2022/06/08 01:22:20;;;;;;;8.48;2.30;;;;;;;;;;6321865;28;20052;-72
2022/06/08 01:25:22;;;;;;;3.85;2.08;;;;;;;;;;6322037;28;20047;-73
2022/06/08 01:28:31;;;;;;;4.60;1.88;;;;;;;;;;6319405;28;20060;-72
2022/06/08 01:31:38;;;;;;;3.35;1.58;;;;;;;;;;6322485;28;20053;-73
2022/06/08 01:34:45;;;;;;;5.78;1.70;;;;;;;;;;6318540;28;20294;-72
2022/06/08 01:37:57;;;;;;;5.43;1.98;;;;;;;;;;6322031;28;20044;-72
2022/06/08 01:41:23;;;;;;;6.53;1.50;;;;;;;;;;6322774;28;20052;-72
2022/06/08 01:48:41;;;;;;;2.78;1.65;;;;;;;;;;6325645;28;20033;-72
2022/06/08 01:52:07;;;;;;;4.15;1.80;;;;;;;;;;6325984;28;20044;-73
2022/06/08 01:55:13;;;;;;;3.75;1.80;;;;;;;;;;6325571;27;20063;-72
2022/06/08 01:58:17;;;;;;;3.28;1.65;;;;;;;;;;6325187;27;20097;-72
2022/06/08 02:01:24;;;;;;;4.35;1.90;;;;;;;;;;6325768;28;20059;-72
2022/06/08 02:04:31;;;;;;;5.05;2.05;;;;;;;;;;6321697;28;20049;-72
2022/06/08 02:07:35;;;;;;;3.85;1.60;;;;;;;;;;6324769;28;20062;-73
2022/06/08 02:10:39;;;;;;;;;;;;;;;;;;6327334;28;20048;-72
2022/06/08 02:13:45;;;;;;;3.28;2.30;;;;;;;;;;6323228;28;19924;-72
2022/06/08 02:16:50;;;;;;;3.13;1.48;;;;;;;;;;6324008;28;20052;-73
2022/06/08 02:19:54;;;;;;;3.40;1.50;;;;;;;;;;6324236;28;20060;-73
2022/06/08 02:22:58;;;;;;;3.15;1.38;;;;;;;;;;6322840;28;20044;-72
2022/06/08 02:26:04;;;;;;;3.20;1.60;;;;;;;;;;6322548;28;20044;-73
2022/06/08 02:29:09;;;;;;;3.53;1.50;;;;;;;;;;6324004;28;20235;-73
2022/06/08 02:35:33;;;;;;;3.33;1.45;;;;;;;;;;6328208;28;20426;-73
2022/06/08 02:38:40;;;;;;;5.10;1.50;;;;;;;;;;6328163;28;20051;-72
2022/06/08 02:41:45;;;;;;;3.97;1.83;;;;;;;;;;6329316;28;20081;-73
2022/06/08 02:44:49;;;;;;;3.45;1.35;;;;;;;;;;6324702;28;20052;-73
2022/06/08 02:47:53;;;;;;;2.05;1.42;;;;;;;;;;6326242;28;20048;-73
2022/06/08 02:50:56;;;;;;;8.93;1.65;;;;;;;;;;6328754;27;20040;-73
2022/06/08 02:54:01;;;;;;;7.78;1.55;;;;;;;;;;6323846;28;20052;-73
2022/06/08 02:57:10;;;;;;;3.33;1.75;;;;;;;;;;6323481;28;20063;-73
2022/06/08 03:00:14;;;;;;;2.20;1.17;;;;;;;;;;6324018;28;20055;-72
2022/06/08 03:03:20;;;;;;;2.50;1.27;;;;;;;;;;6326023;28;20250;-73
2022/06/08 03:06:24;;;;;;;3.33;1.58;;;;;;;;;;6323917;28;20046;-73
2022/06/08 03:09:26;;;;;;;3.78;1.55;;;;;;;;;;6329133;28;20056;-71
2022/06/08 03:12:33;;;;;;;6.97;1.80;;;;;;;;;;6326094;28;20243;-73
2022/06/08 03:15:35;;;;;;;4.47;1.52;;;;;;;;;;6325034;28;20063;-73
2022/06/08 03:18:37;;;;;;;3.25;1.38;;;;;;;;;;6324778;28;20048;-73
2022/06/08 03:21:38;;;;;;;3.00;1.40;;;;;;;;;;6327170;28;20104;-71
2022/06/08 03:24:40;;;;;;;4.93;1.45;;;;;;;;;;6326813;28;20268;-72
2022/06/08 03:27:44;;;;;;;2.33;1.50;;;;;;;;;;6328642;28;20365;-72
2022/06/08 03:30:46;;;;;;;3.10;1.27;;;;;;;;;;6326386;28;20052;-72
2022/06/08 03:33:48;;;;;;;2.58;1.30;;;;;;;;;;6329856;28;20045;-72
2022/06/08 03:36:50;;;;;;;11.07;2.33;;;;;;;;;;6329975;28;20047;-72
2022/06/08 03:39:51;;;;;;;3.90;1.52;;;;;;;;;;6331888;28;20060;-72
2022/06/08 03:42:55;;;;;;;3.45;1.40;;;;;;;;;;6333727;28;20039;-72
2022/06/08 03:45:59;;;;;;;2.75;1.20;;;;;;;;;;6329378;28;20059;-72
2022/06/08 03:49:01;;;;;;;2.30;1.40;;;;;;;;;;6330445;27;20039;-71
2022/06/08 03:52:05;;;;;;;2.38;1.60;;;;;;;;;;6329590;28;20089;-72
2022/06/08 03:55:08;;;;;;;3.10;1.40;;;;;;;;;;6329843;28;20048;-73
2022/06/08 03:58:12;;;;;;;3.03;1.38;;;;;;;;;;6330030;28;20397;-72
2022/06/08 04:01:14;;;;;;;2.63;1.27;;;;;;;;;;6329237;28;20040;-72
2022/06/08 04:04:15;;;;;;;5.15;1.77;;;;;;;;;;6329813;28;20048;-73
2022/06/08 04:07:17;;;;;;;5.47;1.70;;;;;;;;;;6327257;28;20044;-73
2022/06/08 04:10:19;;;;;;;5.97;1.70;;;;;;;;;;6327629;28;20048;-72
2022/06/08 04:13:22;;;;;;;3.20;1.90;;;;;;;;;;6330868;28;20048;-72
2022/06/08 04:16:24;;;;;;;2.22;1.70;;;;;;;;;;6329267;27;20047;-72
2022/06/08 04:19:25;;;;;;;5.03;2.28;;;;;;;;;;6335398;28;20064;-72
2022/06/08 04:22:31;;;;;;;5.40;2.20;;;;;;;;;;6329864;28;20047;-73
2022/06/08 04:25:33;;;;;;;5.25;1.90;;;;;;;;;;6327181;28;20093;-73
2022/06/08 04:28:36;;;;;;;8.50;2.47;;;;;;;;;;6323810;28;20059;-73
2022/06/08 04:31:38;;;;;;;4.63;2.00;;;;;;;;;;6329478;28;20052;-73
2022/06/08 04:34:41;;;;;;;5.05;2.08;;;;;;;;;;6332978;28;20056;-73
2022/06/08 04:37:43;;;;;;;3.75;1.70;;;;;;;;;;6330877;28;20113;-72
2022/06/08 04:40:46;;;;;;;4.50;1.70;;;;;;;;;;6331887;28;20047;-73
2022/06/08 04:43:49;;;;;;;5.20;1.95;;;;;;;;;;6328975;28;20323;-72
2022/06/08 04:46:52;;;;;;;4.78;1.90;;;;;;;;;;6323008;28;20063;-73
2022/06/08 04:49:53;;;;;;;3.20;1.90;;;;;;;;;;6328106;28;20153;-73
2022/06/08 04:52:55;;;;;;;4.70;2.35;;;;;;;;;;6330983;28;20051;-72
2022/06/08 04:55:56;;;;;;;4.03;2.25;;;;;;;;;;6325173;27;20048;-70
2022/06/08 04:59:01;;;;;;;3.45;1.98;;;;;;;;;;6327729;28;20113;-68
2022/06/08 05:02:02;;;;;;;6.13;2.00;;;;;;;;;;6326524;28;20265;-70
2022/06/08 05:05:05;;;;;;;5.88;1.52;;;;;;;;;;6323115;28;20069;-70
2022/06/08 05:08:08;;;;;;;3.10;1.50;;;;;;;;;;6327230;28;20040;-69
2022/06/08 05:11:09;;;;;;;3.17;1.30;;;;;;;;;;6325341;28;20128;-71
2022/06/08 05:14:13;;;;;;;3.00;1.88;;;;;;;;;;6326543;28;20056;-70
2022/06/08 05:17:14;;;;;;;;;;;;;;;;;;6308588;28;20112;-71
2022/06/08 05:20:18;;;;;;;4.45;1.48;;;;;;;;;;6327545;27;19916;-71
2022/06/08 05:23:23;;;;;;;4.38;1.70;;;;;;;;;;6325566;28;20338;-71
2022/06/08 05:26:25;;;;;;;3.90;2.55;;;;;;;;;;6325209;28;20335;-72
2022/06/08 05:29:28;;;;;;;3.47;1.90;;;;;;;;;;6328134;27;20044;-71
2022/06/08 05:32:29;;;;;;;6.25;1.83;;;;;;;;;;6325497;27;20048;-72
2022/06/08 05:35:31;;;;;;;4.63;2.03;;;;;;;;;;6326303;28;20105;-71
2022/06/08 05:38:33;;;;;;;4.53;2.00;;;;;;;;;;6323426;27;20078;-71
2022/06/08 05:41:35;;;;;;;4.25;2.05;;;;;;;;;;6327432;27;20056;-72
2022/06/08 05:44:38;;;;;;;4.65;1.63;;;;;;;;;;6326837;27;20345;-72
2022/06/08 05:47:39;;;;;;;2.25;1.52;;;;;;;;;;6324802;27;20048;-72
2022/06/08 05:50:42;;;;;;;4.07;1.60;;;;;;;;;;6324221;27;20055;-72
2022/06/08 05:53:45;;;;;;;2.63;1.17;;;;;;;;;;6324391;27;20040;-71
2022/06/08 05:56:47;;;;;;;2.50;1.10;;;;;;;;;;6322795;27;20068;-72
2022/06/08 05:59:50;;;;;;;234.40;21.13;;;;;;;;;;6325026;27;20048;-73
2022/06/08 06:02:52;;;;;;;4.43;1.33;;;;;;;;;;6328113;27;20060;-71
2022/06/08 06:05:54;;;;;;;52.50;4.50;;;;;;;;;;6326228;28;20051;-68
2022/06/08 06:08:55;;;;;;;2.88;1.10;;;;;;;;;;6327235;27;20109;-67
2022/06/08 06:11:57;;;;;;;4.35;1.10;;;;;;;;;;6321270;28;20089;-68
2022/06/08 06:15:01;;;;;;;2.17;1.00;;;;;;;;;;6320349;28;20056;-68
2022/06/08 06:18:02;;;;;;;;;;;;;;;;;;6319804;28;20052;-67
2022/06/08 06:21:04;;;;;;;5.38;1.40;;;;;;;;;;6321677;27;19916;-67
2022/06/08 06:24:06;;;;;;;3.33;1.55;;;;;;;;;;6324640;27;20044;-70
2022/06/08 06:27:08;;;;;;;4.50;1.65;;;;;;;;;;6322043;27;20110;-70
2022/06/08 06:30:13;;;;;;;2.83;1.75;;;;;;;;;;6322202;28;20121;-70
2022/06/08 06:33:15;;;;;;;4.90;2.00;;;;;;;;;;6326179;27;20097;-70
2022/06/08 06:36:17;;;;;;;4.10;2.05;;;;;;;;;;6322437;28;20056;-71
2022/06/08 06:39:19;;;;;;;3.63;2.67;;;;;;;;;;6327130;28;20050;-70
2022/06/08 06:42:23;;;;;;;5.55;2.03;;;;;;;;;;6326323;28;20103;-71
2022/06/08 06:45:26;;;;;;;4.72;2.10;;;;;;;;;;6322284;28;20111;-71
2022/06/08 06:48:28;;;;;;;5.03;2.08;;;;;;;;;;6323970;28;20064;-71
2022/06/08 06:51:30;;;;;;;2.70;1.70;;;;;;;;;;6328614;28;20044;-70
2022/06/08 06:54:32;;;;;;;3.08;2.30;;;;;;;;;;6323826;28;20347;-70
2022/06/08 06:57:33;;;;;;;3.38;2.33;;;;;;;;;;6323771;28;20044;-69
2022/06/08 07:00:37;;;;;;;3.55;2.42;;;;;;;;;;6321944;28;20066;-71
2022/06/08 07:03:38;;;;;;;4.93;1.95;;;;;;;;;;6323994;28;20044;-70
2022/06/08 07:06:40;;;;;;;5.35;2.10;;;;;;;;;;6323719;28;20052;-71
2022/06/08 07:09:42;;;;;;;4.40;2.28;;;;;;;;;;6328665;28;20048;-70
2022/06/08 07:12:44;;;;;;;3.90;2.10;;;;;;;;;;6327574;28;20055;-71
2022/06/08 07:15:47;;;;;;;6.43;2.28;;;;;;;;;;6326352;28;20055;-70
2022/06/08 07:18:49;;;;;;;3.92;2.20;;;;;;;;;;6323327;28;20044;-71
2022/06/08 07:21:51;;;;;;;5.78;1.83;;;;;;;;;;6327825;28;20124;-70
2022/06/08 07:24:52;;;;;;;4.60;2.28;;;;;;;;;;6325294;28;20040;-71
2022/06/08 07:27:54;;;;;;;5.35;2.30;;;;;;;;;;6329513;28;20059;-72
2022/06/08 07:30:57;;;;;;;8.15;2.65;;;;;;;;;;6325562;28;20056;-72
2022/06/08 07:33:59;;;;;;;4.43;2.38;;;;;;;;;;6322542;28;20068;-71
2022/06/08 07:37:01;;;;;;;4.15;2.42;;;;;;;;;;6323150;28;20063;-72
2022/06/08 07:40:02;;;;;;;5.00;2.25;;;;;;;;;;6325702;28;20048;-70
2022/06/08 07:43:04;;;;;;;5.53;2.03;;;;;;;;;;6325455;28;20044;-71
2022/06/08 07:46:07;;;;;;;6.03;2.67;;;;;;;;;;6326808;28;20109;-71
2022/06/08 07:52:29;;;;;;;5.35;2.42;;;;;;;;;;6321055;28;20287;-71
2022/06/08 07:55:31;;;;;;;7.18;2.15;;;;;;;;;;6324827;28;20062;-71
2022/06/08 07:58:33;;;;;;;3.08;2.22;;;;;;;;;;6323887;28;20051;-70
2022/06/08 08:01:36;;;;;;;3.40;2.25;;;;;;;;;;6325815;28;20044;-70
2022/06/08 08:04:37;;;;;;;;;;;;;;;;;;6324473;28;20060;-70
2022/06/08 08:07:39;;;;;;;4.18;1.77;;;;;;;;;;6326136;28;20223;-71
2022/06/08 08:10:41;;;;;;;5.03;2.17;;;;;;;;;;6329908;28;20075;-70
2022/06/08 08:13:43;;;;;;;4.78;1.67;;;;;;;;;;6332266;28;20843;-71
2022/06/08 08:16:46;;;;;;;6.20;1.98;;;;;;;;;;6332342;28;20234;-72
2022/06/08 08:19:47;;;;;;;5.05;2.30;;;;;;;;;;6330129;28;20068;-70
2022/06/08 08:22:49;;;;;;;4.47;2.42;;;;;;;;;;6326084;28;20064;-70
2022/06/08 08:25:52;;;;;;;5.78;2.60;;;;;;;;;;6327420;28;20052;-71
2022/06/08 08:28:54;;;;;;;2.85;1.85;;;;;;;;;;6327590;28;20052;-72
2022/06/08 08:31:57;;;;;;;3.72;1.52;;;;;;;;;;6329611;28;20060;-71
2022/06/08 08:34:59;;;;;;;4.72;2.40;;;;;;;;;;6326310;28;20062;-71
2022/06/08 08:38:01;;;;;;;3.72;1.80;;;;;;;;;;6327466;28;20097;-71
2022/06/08 08:41:04;;;;;;;5.07;1.83;;;;;;;;;;6328072;28;20365;-71
2022/06/08 08:44:06;;;;;;;2.08;1.60;;;;;;;;;;6323505;28;20235;-71
2022/06/08 08:47:18;;;;;;;5.20;1.73;;;;;;;;;;6324683;28;20040;-71
2022/06/08 08:50:24;;;;;;;2.90;1.48;;;;;;;;;;6325794;28;20044;-71
2022/06/08 08:53:29;;;;;;;2.92;1.75;;;;;;;;;;6324122;28;20346;-71
2022/06/08 08:56:35;;;;;;;3.13;1.75;;;;;;;;;;6330769;28;20047;-71
2022/06/08 08:59:36;;;;;;;5.63;1.80;;;;;;;;;;6331115;28;20063;-71
2022/06/08 09:06:11;;;;;;;3.90;2.45;;;;;;;;;;6305618;28;20059;-71
2022/06/08 09:09:15;;;;;;;3.13;2.55;;;;;;;;;;6325864;28;20043;-70
2022/06/08 09:12:19;;;;;;;2.47;1.88;;;;;;;;;;6325243;28;20044;-71
2022/06/08 09:15:43;;;;;;;5.05;2.80;;;;;;;;;;6329428;28;20110;-71
2022/06/08 09:18:46;;;;;;;4.10;2.53;;;;;;;;;;6328338;28;21013;-70
2022/06/08 09:21:49;;;;;;;5.65;1.77;;;;;;;;;;6326335;28;20117;-71
2022/06/08 09:24:53;;;;;;;2.75;1.95;;;;;;;;;;6325527;28;20445;-72
2022/06/08 09:27:57;;;;;;;3.42;2.30;;;;;;;;;;6326130;28;20104;-71
2022/06/08 09:30:59;;;;;;;5.43;2.17;;;;;;;;;;6327563;28;20051;-71
2022/06/08 09:34:11;;;;;;;5.53;2.17;;;;;;;;;;6328166;28;20052;-71
2022/06/08 09:37:15;;;;;;;2.42;2.20;;;;;;;;;;6326149;28;20063;-71
2022/06/08 09:44:01;;;;;;;5.63;2.80;;;;;;;;;;6321517;28;20048;-71
2022/06/08 09:54:06;;;;;;;3.78;2.80;;;;;;;;;;6325633;28;20076;-72
2022/06/08 09:57:30;;;;;;;2.65;2.30;;;;;;;;;;6327921;28;20039;-71
2022/06/08 10:00:37;;;;;;;3.72;2.90;;;;;;;;;;6327898;28;20117;-71
2022/06/08 10:03:54;;;;;;;4.15;2.67;;;;;;;;;;6321870;28;20102;-70
2022/06/08 10:07:01;;;;;;;4.28;2.45;;;;;;;;;;6325438;28;20044;-72
2022/06/08 10:10:14;;;;;;;7.20;3.65;;;;;;;;;;6325062;28;20094;-71
2022/06/08 10:13:20;;;;;;;5.10;2.65;;;;;;;;;;6325345;28;20051;-71
2022/06/08 10:16:25;;;;;;;7.97;2.83;;;;;;;;;;6324719;28;20277;-71
2022/06/08 10:19:30;;;;;;;3.65;2.88;;;;;;;;;;6323685;28;20237;-71
2022/06/08 10:22:37;;;;;;;4.25;2.42;;;;;;;;;;6325216;28;20052;-71
2022/06/08 10:25:42;;;;;;;4.18;3.28;;;;;;;;;;6323956;28;20047;-71
2022/06/08 10:28:47;;;;;;;3.72;2.80;;;;;;;;;;6322704;28;20051;-71
2022/06/08 10:31:52;;;;;;;3.58;2.70;;;;;;;;;;6302022;28;20055;-71
2022/06/08 10:34:54;;;;;;;4.03;2.47;;;;;;;;;;6319855;28;20039;-71
2022/06/08 10:44:50;;;;;;;5.88;2.90;;;;;;;;;;6272892;28;20041;-72
2022/06/08 10:47:55;;;;;;;4.47;1.85;;;;;;;;;;6278475;28;20074;-71
2022/06/08 10:51:28;;;;;;;4.18;2.15;;;;;;;;;;6276170;28;20084;-71
2022/06/08 10:54:57;;;;;;;2.75;2.03;;;;;;;;;;6261331;28;20052;-71
2022/06/08 10:58:12;;;;;;;4.07;2.35;;;;;;;;;;6279079;28;20052;-71
2022/06/08 11:01:26;;;;;;;2.33;2.10;;;;;;;;;;6273139;28;20037;-70
2022/06/08 11:04:43;;;;;;;4.55;1.90;;;;;;;;;;6274639;28;20057;-72
2022/06/08 11:08:15;;;;;;;2.30;1.58;;;;;;;;;;6277275;28;20372;-72
2022/06/08 11:11:38;;;;;;;3.45;1.88;;;;;;;;;;6274342;28;20039;-72
2022/06/08 11:14:56;;;;;;;2.45;1.98;;;;;;;;;;6272227;28;20052;-71
2022/06/08 11:18:01;;;;;;;2.85;1.70;;;;;;;;;;6276308;28;20056;-72
2022/06/08 11:21:18;;;;;;;5.13;1.80;;;;;;;;;;6276975;28;20057;-73
2022/06/08 11:24:24;;;;;;;4.75;2.30;;;;;;;;;;6274668;28;20101;-71
2022/06/08 11:27:30;;;;;;;3.45;2.17;;;;;;;;;;6275179;28;20057;-72
2022/06/08 11:30:50;;;;;;;4.32;2.20;;;;;;;;;;6278170;28;20175;-71
2022/06/08 11:34:05;;;;;;;4.85;2.38;;;;;;;;;;6266756;28;20263;-71
2022/06/08 11:37:19;;;;;;;6.40;2.75;;;;;;;;;;6276958;28;20130;-72
2022/06/08 11:40:27;;;;;;;5.38;2.80;;;;;;;;;;6274034;28;20065;-72
2022/06/08 11:43:37;;;;;;;4.85;2.03;;;;;;;;;;6246862;28;20121;-71
2022/06/08 11:46:43;;;;;;;6.35;2.13;;;;;;;;;;6255400;28;20225;-71
2022/06/08 11:49:46;;;;;;;5.80;2.10;;;;;;;;;;6256239;28;20049;-70
2022/06/08 11:52:59;;;;;;;5.45;1.90;;;;;;;;;;6253029;28;20050;-72
2022/06/08 11:56:08;;;;;;;2.53;1.80;;;;;;;;;;6253517;28;20362;-71
2022/06/08 11:59:18;;;;;;;3.75;1.70;;;;;;;;;;6253812;28;20041;-71
2022/06/08 12:02:23;;;;;;;4.53;1.95;;;;;;;;;;6259338;28;20117;-71
2022/06/08 12:05:28;;;;;;;3.55;1.70;;;;;;;;;;6257836;28;20102;-72
2022/06/08 12:11:46;;;;;;;3.88;1.40;;;;;;;;;;6263113;28;20159;-76
2022/06/08 12:14:48;;;;;;;3.58;2.17;;;;;;;;;;6265319;28;20045;-76
2022/06/08 12:17:51;;;;;;;;;;;;;;;;;;6266606;28;20053;-74
2022/06/08 12:21:04;;;;;;;3.58;1.55;;;;;;;;;;6265116;28;19984;-76
2022/06/08 12:24:22;;;;;;;3.38;2.13;;;;;;;;;;6265129;28;20061;-76
2022/06/08 12:27:25;;;;;;;3.00;1.63;;;;;;;;;;6262926;28;20244;-80
2022/06/08 12:30:29;;;;;;;2.83;1.40;;;;;;;;;;6264705;28;20045;-76
2022/06/08 12:33:32;;;;;;;7.70;1.83;;;;;;;;;;6264980;28;20049;-76
2022/06/08 12:36:34;;;;;;;2.47;1.33;;;;;;;;;;6264632;28;20060;-76
2022/06/08 12:39:39;;;;;;;2.33;1.20;;;;;;;;;;6264566;28;20269;-77
2022/06/08 12:42:47;;;;;;;5.00;2.00;;;;;;;;;;6255795;28;20065;-76
2022/06/08 12:46:10;;;;;;;1.88;1.40;;;;;;;;;;6253541;28;20099;-77
2022/06/08 12:49:19;;;;;;;4.22;1.30;;;;;;;;;;6252915;28;20124;-76
2022/06/08 12:52:23;;;;;;;3.72;1.50;;;;;;;;;;6251206;28;20244;-76
2022/06/08 12:55:27;;;;;;;1.98;1.45;;;;;;;;;;6249781;28;20052;-74
2022/06/08 12:58:29;;;;;;;4.30;1.80;;;;;;;;;;6251955;28;20253;-75
2022/06/08 13:01:31;;;;;;;3.50;1.38;;;;;;;;;;6257197;28;20056;-75
2022/06/08 13:04:34;;;;;;;3.15;1.63;;;;;;;;;;6249659;28;20135;-78
2022/06/08 13:07:36;;;;;;;2.85;1.65;;;;;;;;;;6255985;28;20065;-74
2022/06/08 13:10:39;;;;;;;5.03;1.60;;;;;;;;;;6252165;28;20044;-76
2022/06/08 13:13:41;;;;;;;1.38;1.23;;;;;;;;;;6256092;28;20635;-74
2022/06/08 13:16:44;;;;;;;4.18;1.60;;;;;;;;;;6251209;28;21099;-74
2022/06/08 13:19:48;;;;;;;2.13;1.17;;;;;;;;;;6253979;28;20050;-74
2022/06/08 13:22:50;;;;;;;2.35;1.10;;;;;;;;;;6251737;28;20049;-75
2022/06/08 13:25:54;;;;;;;1.67;1.10;;;;;;;;;;6252869;28;20045;-73
2022/06/08 13:28:57;;;;;;;1.52;1.30;;;;;;;;;;6249763;28;20053;-75
2022/06/08 13:31:59;;;;;;;3.35;1.40;;;;;;;;;;6251125;28;20083;-74
2022/06/08 13:35:02;;;;;;;1.45;1.30;;;;;;;;;;6253975;28;20049;-73
2022/06/08 13:38:04;;;;;;;1.45;1.00;;;;;;;;;;6254813;28;20091;-74
2022/06/08 13:41:06;;;;;;;1.83;1.40;;;;;;;;;;6251757;28;20224;-73
2022/06/08 13:44:13;;;;;;;1.90;1.08;;;;;;;;;;6253813;28;20052;-74
2022/06/08 13:47:18;;;;;;;2.85;1.20;;;;;;;;;;6252745;28;20052;-77
2022/06/08 13:50:29;;;;;;;2.38;0.80;;;;;;;;;;6251309;28;20045;-75
2022/06/08 13:53:30;;;;;;;2.95;1.00;;;;;;;;;;6247990;28;20136;-74
2022/06/08 13:56:34;;;;;;;2.83;1.23;;;;;;;;;;6243557;28;20548;-74
2022/06/08 13:59:37;;;;;;;3.63;1.00;;;;;;;;;;6239973;28;20050;-75
2022/06/08 14:02:42;;;;;;;2.92;1.00;;;;;;;;;;6234860;28;20367;-75
2022/06/08 14:15:52;;;;;;;3.30;1.17;;;;;;;;;;6250018;28;20065;-74
2022/06/08 14:18:56;;;;;;;3.00;1.20;;;;;;;;;;6243665;28;20674;-74
2022/06/08 14:22:01;;;;;;;2.28;1.42;;;;;;;;;;6247444;28;20124;-75
2022/06/08 14:25:08;;;;;;;3.67;1.52;;;;;;;;;;6246431;28;20094;-71
2022/06/08 14:28:10;;;;;;;3.17;1.60;;;;;;;;;;6249623;28;20071;-71
2022/06/08 14:31:15;;;;;;;2.10;1.90;;;;;;;;;;6249351;28;20084;-71
2022/06/08 14:34:23;;;;;;;3.55;1.50;;;;;;;;;;6245820;28;20084;-73
2022/06/08 14:37:26;;;;;;;1.83;1.40;;;;;;;;;;6252580;28;20125;-72
2022/06/08 14:40:30;;;;;;;5.35;2.30;;;;;;;;;;6246397;28;20053;-71
2022/06/08 14:43:34;;;;;;;2.10;1.58;;;;;;;;;;6246471;28;20127;-70
2022/06/08 14:46:37;;;;;;;3.17;1.80;;;;;;;;;;6243654;28;20536;-73
2022/06/08 14:49:39;;;;;;;2.65;1.70;;;;;;;;;;6248903;28;20229;-71
2022/06/08 14:52:43;;;;;;;5.90;1.60;;;;;;;;;;6245136;28;20068;-71
2022/06/08 14:59:13;;;;;;;6.22;1.83;;;;;;;;;;6248832;28;20333;-72
2022/06/08 15:02:20;;;;;;;2.85;1.60;;;;;;;;;;6244077;28;20968;-71
2022/06/08 15:05:22;;;;;;;3.25;1.60;;;;;;;;;;6247888;28;20241;-70
2022/06/08 15:08:25;;;;;;;6.57;2.15;;;;;;;;;;6249799;28;20096;-71
2022/06/08 15:14:52;;;;;;;3.05;1.70;;;;;;;;;;6250072;28;20049;-72
2022/06/08 15:17:56;;;;;;;2.55;1.80;;;;;;;;;;6250443;28;20057;-70
2022/06/08 15:20:59;;;;;;;2.20;2.00;;;;;;;;;;6251015;28;20345;-72
2022/06/08 15:24:02;;;;;;;3.70;1.83;;;;;;;;;;6246794;28;20053;-70
2022/06/08 15:27:14;;;;;;;4.63;1.45;;;;;;;;;;6247642;28;20061;-70
2022/06/08 15:30:20;;;;;;;11.98;1.65;;;;;;;;;;6246469;28;20228;-72
2022/06/08 15:33:24;;;;;;;7.07;1.85;;;;;;;;;;6248980;28;20275;-71
2022/06/08 15:36:26;;;;;;;2.72;1.20;;;;;;;;;;6247017;28;20053;-77
2022/06/08 15:39:32;;;;;;;2.40;0.88;;;;;;;;;;6243677;28;20057;-78
2022/06/08 15:42:34;;;;;;;1.13;1.00;;;;;;;;;;6243125;28;20056;-76
2022/06/08 15:45:36;;;;;;;2.43;1.47;;;;;;;;;;6242239;28;20152;-75
2022/06/08 15:48:39;;;;;;;5.88;1.63;;;;;;;;;;6240843;28;20053;-74
2022/06/08 15:51:40;;;;;;;;;;;;;;;;;;6242832;28;20064;-78
2022/06/08 15:54:46;;;;;;;2.05;1.73;;;;;;;;;;6244273;28;19963;-78
2022/06/08 15:57:49;;;;;;;14.00;2.45;;;;;;;;;;6244770;28;20071;-75
2022/06/08 16:00:51;;;;;;;5.65;2.22;;;;;;;;;;6246844;28;20053;-76
2022/06/08 16:03:53;;;;;;;2.40;1.80;;;;;;;;;;6249361;28;20065;-74
2022/06/08 16:06:55;;;;;;;3.35;1.40;;;;;;;;;;6248284;28;20057;-78
2022/06/08 16:09:58;;;;;;;3.88;1.50;;;;;;;;;;6249215;28;20076;-72
2022/06/08 16:12:59;;;;;;;;;;;;;;;;;;6245989;28;20117;-74
2022/06/08 16:16:01;;;;;;;3.38;1.42;;;;;;;;;;6244659;28;19929;-74
2022/06/08 16:19:03;;;;;;;3.40;1.50;;;;;;;;;;6244006;28;20045;-76
2022/06/08 16:22:05;;;;;;;2.63;1.52;;;;;;;;;;6244597;28;20064;-81
2022/06/08 16:25:10;;;;;;;6.35;2.50;;;;;;;;;;6248599;28;20053;-76
2022/06/08 16:28:13;;;;;;;2.80;1.60;;;;;;;;;;6249495;28;20053;-74
2022/06/08 16:31:15;;;;;;;3.00;1.90;;;;;;;;;;6249741;28;20233;-75
2022/06/08 16:34:17;;;;;;;7.17;3.03;;;;;;;;;;6246501;28;20050;-73
2022/06/08 16:37:19;;;;;;;6.28;2.90;;;;;;;;;;6252928;28;20113;-76
2022/06/08 16:40:27;;;;;;;5.93;2.13;;;;;;;;;;6255775;28;20380;-76
2022/06/08 16:43:29;;;;;;;7.95;2.50;;;;;;;;;;6254240;28;20309;-73
2022/06/08 16:46:31;;;;;;;3.95;1.92;;;;;;;;;;6251472;28;20226;-74
2022/06/08 16:49:32;;;;;;;3.63;2.00;;;;;;;;;;6252666;28;20075;-73
2022/06/08 16:52:34;;;;;;;10.50;2.10;;;;;;;;;;6250986;28;20052;-72
2022/06/08 16:55:39;;;;;;;2.95;1.63;;;;;;;;;;6251374;28;20049;-72
2022/06/08 17:02:00;;;;;;;1.90;1.50;;;;;;;;;;6256036;28;20351;-73
2022/06/08 17:05:01;;;;;;;3.33;1.23;;;;;;;;;;6250474;28;20049;-75
2022/06/08 17:08:04;;;;;;;4.82;1.70;;;;;;;;;;6246176;28;20041;-76
2022/06/08 17:14:29;;;;;;;2.92;1.95;;;;;;;;;;6243290;28;20053;-73
2022/06/08 17:17:35;;;;;;;2.72;1.85;;;;;;;;;;6243999;28;20227;-72
2022/06/08 17:20:37;;;;;;;4.70;1.98;;;;;;;;;;6252134;28;20053;-71
2022/06/08 17:23:39;;;;;;;6.05;2.40;;;;;;;;;;6249491;28;20494;-72
2022/06/08 17:26:42;;;;;;;5.75;2.13;;;;;;;;;;6247719;28;20064;-72
2022/06/08 17:29:44;;;;;;;4.85;2.45;;;;;;;;;;6251805;28;20057;-76
2022/06/08 17:32:46;;;;;;;11.95;3.30;;;;;;;;;;6251139;28;20045;-73
2022/06/08 17:35:48;;;;;;;33.92;6.43;;;;;;;;;;6246962;28;20333;-75
2022/06/08 17:38:50;;;;;;;10.93;6.43;;;;;;;;;;6250278;28;20091;-74
2022/06/08 17:42:21;;;;;;;8.38;5.57;;;;;;;;;;6242539;28;20050;-74
2022/06/08 17:45:16;;;;;;;10.43;6.53;;;;;;;;;;6249758;28;20049;-84
2022/06/08 17:48:18;;;;;;;12.70;5.90;;;;;;;;;;6251348;28;20354;-76
2022/06/08 17:51:20;;;;;;;7.70;4.35;;;;;;;;;;6250635;28;20061;-76
2022/06/08 17:54:22;;;;;;;8.45;6.18;;;;;;;;;;6252522;28;20069;-76
2022/06/08 17:57:26;;;;;;;9.98;6.95;;;;;;;;;;6248497;28;20344;-75
2022/06/08 18:00:28;;;;;;;8.80;6.50;;;;;;;;;;6247252;28;20240;-76
2022/06/08 18:03:30;;;;;;;10.25;6.10;;;;;;;;;;6248675;28;20087;-74
2022/06/08 18:06:32;;;;;;;10.45;6.43;;;;;;;;;;6246175;28;20053;-76
2022/06/08 18:09:34;;;;;;;9.55;7.00;;;;;;;;;;6250948;28;20050;-74
2022/06/08 18:12:37;;;;;;;9.25;6.13;;;;;;;;;;6248887;28;20146;-73
2022/06/08 18:15:40;;;;;;;10.75;6.00;;;;;;;;;;6248033;28;20049;-72
2022/06/08 18:18:42;;;;;;;12.50;7.00;;;;;;;;;;6249962;28;20059;-72
2022/06/08 18:21:44;;;;;;;9.87;5.87;;;;;;;;;;6250508;28;20041;-72
2022/06/08 18:24:46;;;;;;;10.52;6.68;;;;;;;;;;6248720;28;20095;-74
2022/06/08 18:27:51;;;;;;;12.95;7.40;;;;;;;;;;6247876;28;20942;-71
2022/06/08 18:30:54;;;;;;;11.15;6.28;;;;;;;;;;6248721;28;20345;-72
2022/06/08 18:33:55;;;;;;;8.85;5.63;;;;;;;;;;6247406;28;20050;-72
2022/06/08 18:36:57;;;;;;;9.43;5.47;;;;;;;;;;6249422;28;20120;-71
2022/06/08 18:39:59;;;;;;;9.10;5.88;;;;;;;;;;6247348;28;20068;-72
2022/06/08 18:43:05;;;;;;;7.65;5.70;;;;;;;;;;6248604;28;20057;-72
2022/06/08 18:46:06;;;;;;;9.40;5.72;;;;;;;;;;6245837;28;20061;-72
2022/06/08 18:49:09;;;;;;;6.07;4.90;;;;;;;;;;6244727;28;20061;-73
2022/06/08 18:52:11;;;;;;;9.07;6.05;;;;;;;;;;6245451;28;20053;-72
2022/06/08 18:55:15;;;;;;;7.57;5.18;;;;;;;;;;6242719;28;20056;-73
2022/06/08 18:58:19;;;;;;;7.88;5.18;;;;;;;;;;6242404;28;20087;-72
2022/06/08 19:01:23;;;;;;;9.05;5.32;;;;;;;;;;6245572;28;20100;-74
2022/06/08 19:04:27;;;;;;;9.52;5.53;;;;;;;;;;6241173;28;20333;-72
2022/06/08 19:07:29;;;;;;;7.60;5.20;;;;;;;;;;6242083;28;20152;-75
2022/06/08 19:10:31;;;;;;;8.82;4.95;;;;;;;;;;6242349;28;20054;-71
2022/06/08 19:13:35;;;;;;;8.13;5.47;;;;;;;;;;6244693;28;20053;-72
2022/06/08 19:16:36;;;;;;;5.22;4.53;;;;;;;;;;6244855;28;20100;-71
2022/06/08 19:22:58;;;;;;;7.82;5.22;;;;;;;;;;6244621;28;20045;-73
2022/06/08 19:26:02;;;;;;;7.00;4.95;;;;;;;;;;6244067;28;21434;-72
2022/06/08 19:29:08;;;;;;;10.35;5.57;;;;;;;;;;6242406;28;20064;-72
2022/06/08 19:32:10;;;;;;;9.00;4.93;;;;;;;;;;6245574;28;20069;-72